Time;durP1;ratioP1;P1;durP2;ratioP2;P2;SDS_P1;SDS_P2;PMS_P1;PMS_P2;Temp;Humidity;BMP_temperature;BMP_pressure;BME280_temperature;BME280_humidity;BME280_pressure;Samples;Min_cycle;Max_cycle;Signal;HPM_P1;HPM_P2
2024/03/05 00:00:13;;;;;;;11.13;4.35;;;;;;;-140.81;100.00;62400.31;5011128;28;20371;-56
2024/03/05 00:02:41;;;;;;;11.57;4.95;;;;;;;-140.81;100.00;62400.31;5028135;28;20518;-55
2024/03/05 00:05:08;;;;;;;12.93;4.78;;;;;;;-140.81;100.00;62400.31;5025637;28;20096;-52
2024/03/05 00:07:38;;;;;;;8.90;4.72;;;;;;;-140.81;100.00;62400.31;5028487;28;20521;-54
2024/03/05 00:10:04;;;;;;;12.60;4.82;;;;;;;-140.81;100.00;62400.31;5011772;28;20099;-56
2024/03/05 00:12:30;;;;;;;11.63;4.30;;;;;;;-140.81;100.00;62400.31;5013149;28;20037;-56
2024/03/05 00:14:56;;;;;;;12.05;4.00;;;;;;;-140.81;100.00;62400.31;5016321;28;20128;-53
2024/03/05 00:17:25;;;;;;;10.98;4.25;;;;;;;-140.81;100.00;62400.31;5027612;28;20129;-54
2024/03/05 00:19:52;;;;;;;15.52;4.22;;;;;;;-140.81;100.00;62400.31;5059751;28;20840;-52
2024/03/05 00:22:19;;;;;;;9.35;3.75;;;;;;;-140.81;100.00;62400.31;5007630;28;20049;-50
2024/03/05 00:24:45;;;;;;;12.15;4.35;;;;;;;-140.81;100.00;62400.31;5013473;28;20051;-54
2024/03/05 00:27:11;;;;;;;18.25;5.00;;;;;;;-140.81;100.00;62400.31;5060424;28;20049;-50
2024/03/05 00:29:37;;;;;;;11.00;5.25;;;;;;;-140.81;100.00;62400.31;5028705;28;20041;-54
2024/03/05 00:32:02;;;;;;;12.38;4.75;;;;;;;-140.81;100.00;62400.31;5028814;28;20045;-51
2024/03/05 00:34:28;;;;;;;12.70;5.07;;;;;;;-140.81;100.00;62400.31;5058596;28;20037;-54
2024/03/05 00:36:55;;;;;;;12.55;4.68;;;;;;;-140.81;100.00;62400.31;5028577;28;20053;-49
2024/03/05 00:39:21;;;;;;;12.32;4.68;;;;;;;-140.81;100.00;62400.31;5027408;28;20156;-50
2024/03/05 00:41:47;;;;;;;14.90;5.63;;;;;;;-140.81;100.00;62400.31;5027361;28;20540;-55
2024/03/05 00:44:13;;;;;;;16.80;5.50;;;;;;;-140.81;100.00;62400.31;5028876;28;20459;-55
2024/03/05 00:46:40;;;;;;;15.13;5.38;;;;;;;-140.81;100.00;62400.31;5026318;28;20056;-56
2024/03/05 00:49:07;;;;;;;12.80;4.63;;;;;;;-140.81;100.00;62400.31;5028208;28;20069;-53
2024/03/05 00:51:34;;;;;;;17.70;4.97;;;;;;;-140.81;100.00;62400.31;5010048;28;20050;-54
2024/03/05 00:54:01;;;;;;;12.40;3.95;;;;;;;-140.81;100.00;62400.31;5027869;28;20082;-50
2024/03/05 00:56:27;;;;;;;11.65;4.53;;;;;;;-140.81;100.00;62400.31;5027472;28;20148;-53
2024/03/05 00:58:52;;;;;;;8.27;3.90;;;;;;;-140.81;100.00;62400.31;5021688;28;20895;-53
2024/03/05 01:01:18;;;;;;;10.77;3.70;;;;;;;-140.81;100.00;62400.31;5016461;28;20046;-51
2024/03/05 01:03:47;;;;;;;10.75;3.92;;;;;;;-140.81;100.00;62400.31;5021835;28;20047;-57
2024/03/05 01:06:14;;;;;;;;;;;;;;;-140.81;100.00;62400.31;5026408;28;20045;-53
2024/03/05 01:08:40;;;;;;;10.00;3.83;;;;;;;-140.81;100.00;62400.31;5027595;28;19921;-54
2024/03/05 01:11:07;;;;;;;7.93;3.90;;;;;;;-140.81;100.00;62400.31;5025734;28;20079;-55
2024/03/05 01:13:33;;;;;;;11.88;3.78;;;;;;;-140.81;100.00;62400.31;5027527;28;20449;-54
2024/03/05 01:16:00;;;;;;;15.75;4.50;;;;;;;-140.81;100.00;62400.31;5035989;28;20063;-52
2024/03/05 01:18:27;;;;;;;10.52;4.15;;;;;;;-140.81;100.00;62400.31;5027561;28;20041;-56
2024/03/05 01:20:53;;;;;;;9.25;4.10;;;;;;;-140.81;100.00;62400.31;5025788;28;20044;-56
2024/03/05 01:23:20;;;;;;;13.75;3.85;;;;;;;-140.81;100.00;62400.31;5027449;28;20045;-55
2024/03/05 01:25:46;;;;;;;10.43;4.82;;;;;;;-140.81;100.00;62400.31;5027220;28;20047;-54
2024/03/05 01:28:14;;;;;;;10.95;5.10;;;;;;;-140.81;100.00;62400.31;5058833;28;20048;-54
2024/03/05 01:30:43;;;;;;;12.05;4.97;;;;;;;-140.81;100.00;62400.31;5027385;28;20079;-51
2024/03/05 01:33:19;;;;;;;11.88;4.53;;;;;;;-140.81;100.00;62400.31;5058289;28;20060;-55
2024/03/05 01:35:51;;;;;;;10.30;4.60;;;;;;;-140.81;100.00;62400.31;5026524;28;20045;-52
2024/03/05 01:38:17;;;;;;;8.82;4.75;;;;;;;-140.81;100.00;62400.31;5027186;28;20178;-56
2024/03/05 01:40:43;;;;;;;10.38;4.28;;;;;;;-140.81;100.00;62400.31;5027255;28;20049;-53
2024/03/05 01:43:10;;;;;;;10.65;4.75;;;;;;;-140.81;100.00;62400.31;5025718;28;20048;-55
2024/03/05 01:45:35;;;;;;;10.60;4.70;;;;;;;-140.81;100.00;62400.31;5025272;28;20136;-57
2024/03/05 01:48:04;;;;;;;14.35;5.35;;;;;;;-140.81;100.00;62400.31;5025426;28;20591;-54
2024/03/05 01:50:37;;;;;;;11.52;4.95;;;;;;;-140.81;100.00;62400.31;5009229;28;20073;-53
2024/03/05 01:53:04;;;;;;;14.25;4.93;;;;;;;-140.81;100.00;62400.31;5058341;28;20064;-56
2024/03/05 01:55:30;;;;;;;9.65;4.63;;;;;;;-140.81;100.00;62400.31;5042136;28;20495;-56
2024/03/05 01:57:57;;;;;;;12.23;4.78;;;;;;;-140.81;100.00;62400.31;5008235;28;20041;-52
2024/03/05 02:00:23;;;;;;;11.05;5.32;;;;;;;-140.81;100.00;62400.31;4992986;28;20041;-49
2024/03/05 02:02:49;;;;;;;12.40;5.32;;;;;;;-140.81;100.00;62400.31;5026345;28;20049;-53
2024/03/05 02:05:15;;;;;;;13.63;4.97;;;;;;;-140.81;100.00;62400.31;5041861;28;20049;-52
2024/03/05 02:07:41;;;;;;;12.73;4.50;;;;;;;-140.81;100.00;62400.31;5025920;28;20124;-50
2024/03/05 02:10:08;;;;;;;10.35;5.35;;;;;;;-140.81;100.00;62400.31;5041434;28;20064;-52
2024/03/05 02:12:36;;;;;;;12.85;5.00;;;;;;;-140.81;100.00;62400.31;5026578;28;20033;-56
2024/03/05 02:15:04;;;;;;;9.02;4.38;;;;;;;-140.81;100.00;62400.31;5026492;28;20056;-56
2024/03/05 02:17:32;;;;;;;11.43;5.13;;;;;;;-140.81;100.00;62400.31;5024500;28;20509;-52
2024/03/05 02:19:57;;;;;;;12.00;4.80;;;;;;;-140.81;100.00;62400.31;5024810;28;20079;-54
2024/03/05 02:22:23;;;;;;;11.65;4.88;;;;;;;-140.81;100.00;62400.31;5010986;28;20673;-55
2024/03/05 02:24:49;;;;;;;10.82;4.53;;;;;;;-140.81;100.00;62400.31;5005362;28;20038;-57
2024/03/05 02:27:15;;;;;;;11.40;4.68;;;;;;;-140.81;100.00;62400.31;5016144;28;20041;-54
2024/03/05 02:29:42;;;;;;;8.77;4.75;;;;;;;-140.81;100.00;62400.31;5025794;28;20037;-54
2024/03/05 02:32:09;;;;;;;16.80;4.97;;;;;;;-140.81;100.00;62400.31;5026600;28;20037;-56
2024/03/05 02:34:34;;;;;;;12.27;5.25;;;;;;;-140.81;100.00;62400.31;5025060;28;20048;-54
2024/03/05 02:37:01;;;;;;;12.43;5.45;;;;;;;-140.81;100.00;62400.31;5007848;28;20041;-55
2024/03/05 02:39:28;;;;;;;14.82;5.43;;;;;;;-140.81;100.00;62400.31;5023916;28;20655;-56
2024/03/05 02:41:54;;;;;;;9.23;5.15;;;;;;;-140.81;100.00;62400.31;5025925;28;20075;-54
2024/03/05 02:44:20;;;;;;;14.75;6.43;;;;;;;-140.81;100.00;62400.31;5024910;28;20378;-56
2024/03/05 02:46:46;;;;;;;12.10;5.32;;;;;;;-140.81;100.00;62400.31;5025368;28;20045;-56
2024/03/05 02:49:13;;;;;;;12.70;5.15;;;;;;;-140.81;100.00;62400.31;4991741;28;20049;-55
2024/03/05 02:51:40;;;;;;;13.60;5.57;;;;;;;-140.81;100.00;62400.31;5024130;28;20041;-56
2024/03/05 02:54:09;;;;;;;14.40;5.88;;;;;;;-140.81;100.00;62400.31;5024327;28;20053;-55
2024/03/05 02:56:34;;;;;;;15.07;5.25;;;;;;;-140.81;100.00;62400.31;5040566;28;20041;-52
2024/03/05 02:59:00;;;;;;;12.25;5.13;;;;;;;-140.81;100.00;62400.31;5025630;28;20075;-53
2024/03/05 03:01:26;;;;;;;14.27;5.97;;;;;;;-140.81;100.00;62400.31;5025967;28;20044;-55
2024/03/05 03:03:52;;;;;;;17.02;6.93;;;;;;;-140.81;100.00;62400.31;5057868;28;20095;-52
2024/03/05 03:06:19;;;;;;;17.20;5.90;;;;;;;-140.81;100.00;62400.31;5024834;28;20041;-53
2024/03/05 03:08:45;;;;;;;14.27;5.60;;;;;;;-140.81;100.00;62400.31;4991593;28;20567;-57
2024/03/05 03:11:15;;;;;;;15.60;5.10;;;;;;;-140.81;100.00;62400.31;5025652;28;20037;-56
2024/03/05 03:13:41;;;;;;;12.20;4.95;;;;;;;-140.81;100.00;62400.31;5041411;28;20456;-52
2024/03/05 03:16:07;;;;;;;17.50;5.72;;;;;;;-140.81;100.00;62400.31;5025641;28;20048;-55
2024/03/05 03:18:33;;;;;;;16.17;5.45;;;;;;;-140.81;100.00;62400.31;5024976;28;20513;-55
2024/03/05 03:20:59;;;;;;;13.55;5.43;;;;;;;-140.81;100.00;62400.31;5025432;28;20176;-56
2024/03/05 03:23:26;;;;;;;13.88;5.47;;;;;;;-140.81;100.00;62400.31;5023857;28;20137;-56
2024/03/05 03:25:52;;;;;;;11.23;5.25;;;;;;;-140.81;100.00;62400.31;5023179;28;20076;-53
2024/03/05 03:28:19;;;;;;;17.02;7.45;;;;;;;-140.81;100.00;62400.31;5024596;28;20479;-52
2024/03/05 03:30:48;;;;;;;11.35;5.10;;;;;;;-140.81;100.00;62400.31;4999900;28;20037;-58
2024/03/05 03:33:14;;;;;;;13.55;5.25;;;;;;;-140.81;100.00;62400.31;5025296;28;20145;-55
2024/03/05 03:35:40;;;;;;;12.20;5.75;;;;;;;-140.81;100.00;62400.31;5007930;28;20561;-56
2024/03/05 03:38:08;;;;;;;18.23;7.50;;;;;;;-140.81;100.00;62400.31;5015725;28;20053;-54
2024/03/05 03:40:34;;;;;;;17.23;6.85;;;;;;;-140.81;100.00;62400.31;5023791;28;20037;-56
2024/03/05 03:43:00;;;;;;;15.27;6.03;;;;;;;-140.81;100.00;62400.31;5023493;28;20041;-53
2024/03/05 03:45:27;;;;;;;17.52;7.07;;;;;;;-140.81;100.00;62400.31;4999449;28;20041;-56
2024/03/05 03:47:53;;;;;;;15.65;6.90;;;;;;;-140.81;100.00;62400.31;5023281;28;20041;-54
2024/03/05 03:50:18;;;;;;;10.40;5.70;;;;;;;-140.81;100.00;62400.31;5025254;28;20132;-53
2024/03/05 03:52:45;;;;;;;13.25;5.32;;;;;;;-140.81;100.00;62400.31;5006660;28;20045;-53
2024/03/05 03:55:11;;;;;;;12.23;5.03;;;;;;;-140.81;100.00;62400.31;5025364;28;20155;-53
2024/03/05 03:57:37;;;;;;;12.65;5.13;;;;;;;-140.81;100.00;62400.31;5025507;28;20085;-56
2024/03/05 04:00:07;;;;;;;12.00;5.10;;;;;;;-140.81;100.00;62400.31;5023968;28;20073;-56
2024/03/05 04:02:36;;;;;;;13.52;5.93;;;;;;;-140.81;100.00;62400.31;5023574;28;20048;-52
2024/03/05 04:05:09;;;;;;;10.48;4.95;;;;;;;-140.81;100.00;62400.31;5014702;28;20053;-55
2024/03/05 04:07:36;;;;;;;11.48;5.20;;;;;;;-140.81;100.00;62400.31;5000380;28;20112;-51
2024/03/05 04:10:06;;;;;;;10.85;5.10;;;;;;;-140.81;100.00;62400.31;5029003;28;20037;-55
2024/03/05 04:12:33;;;;;;;10.30;4.60;;;;;;;-140.81;100.00;62400.31;5021008;28;20076;-60
2024/03/05 04:15:00;;;;;;;10.75;5.07;;;;;;;-140.81;100.00;62400.31;5027756;28;20174;-53
2024/03/05 04:17:28;;;;;;;11.27;5.20;;;;;;;-140.81;100.00;62400.31;5011362;28;20124;-54
2024/03/05 04:19:55;;;;;;;11.60;4.70;;;;;;;-140.81;100.00;62400.31;5028265;28;20072;-54
2024/03/05 04:22:22;;;;;;;13.18;5.32;;;;;;;-140.81;100.00;62400.31;5059483;28;20387;-52
2024/03/05 04:24:59;;;;;;;13.93;5.32;;;;;;;-140.81;100.00;62400.31;5027832;28;20132;-54
2024/03/05 04:27:30;;;;;;;12.82;5.05;;;;;;;-140.81;100.00;62400.31;5028473;28;20045;-53
2024/03/05 04:29:57;;;;;;;16.25;5.28;;;;;;;-140.81;100.00;62400.31;5042756;28;20470;-57
2024/03/05 04:32:26;;;;;;;12.07;5.25;;;;;;;-140.81;100.00;62400.31;5028109;28;20044;-50
2024/03/05 04:35:01;;;;;;;11.77;4.93;;;;;;;-140.81;100.00;62400.31;5027076;28;20475;-53
2024/03/05 04:37:33;;;;;;;12.35;5.72;;;;;;;-140.81;100.00;62400.31;5057145;28;20056;-57
2024/03/05 04:40:00;;;;;;;15.50;5.93;;;;;;;-140.81;100.00;62400.31;5059792;28;20038;-55
2024/03/05 04:42:26;;;;;;;11.02;4.60;;;;;;;-140.81;100.00;62400.31;5027482;28;20087;-57
2024/03/05 04:44:55;;;;;;;12.93;5.70;;;;;;;-140.81;100.00;62400.31;5028523;28;20088;-57
2024/03/05 04:47:21;;;;;;;16.90;5.67;;;;;;;-140.81;100.00;62400.31;5027559;28;20038;-53
2024/03/05 04:49:47;;;;;;;15.68;5.43;;;;;;;-140.81;100.00;62400.31;5027707;28;20052;-52
2024/03/05 04:52:14;;;;;;;13.15;5.60;;;;;;;-140.81;100.00;62400.31;5026758;28;20045;-56
2024/03/05 04:54:41;;;;;;;11.60;5.68;;;;;;;-140.81;100.00;62400.31;5027386;28;20072;-56
2024/03/05 04:57:08;;;;;;;15.68;6.10;;;;;;;-140.81;100.00;62400.31;5028056;28;20572;-55
2024/03/05 04:59:35;;;;;;;15.13;6.50;;;;;;;-140.81;100.00;62400.31;5023334;28;20045;-59
2024/03/05 05:02:01;;;;;;;21.23;7.57;;;;;;;-140.81;100.00;62400.31;5010493;28;20163;-54
2024/03/05 05:04:28;;;;;;;15.20;6.75;;;;;;;-140.81;100.00;62400.31;5027624;28;20214;-56
2024/03/05 05:06:54;;;;;;;12.25;5.80;;;;;;;-140.81;100.00;62400.31;5009808;28;20038;-53
2024/03/05 05:09:22;;;;;;;14.70;6.15;;;;;;;-140.81;100.00;62400.31;5026925;28;20053;-56
2024/03/05 05:11:48;;;;;;;15.43;5.32;;;;;;;-140.81;100.00;62400.31;5008516;28;20040;-54
2024/03/05 05:14:15;;;;;;;14.05;6.32;;;;;;;-140.81;100.00;62400.31;5048035;28;20183;-55
2024/03/05 05:16:45;;;;;;;14.55;5.65;;;;;;;-140.81;100.00;62400.31;5007811;28;20052;-59
2024/03/05 05:19:11;;;;;;;19.00;7.18;;;;;;;-140.81;100.00;62400.31;5024038;28;20033;-55
2024/03/05 05:21:38;;;;;;;15.23;5.50;;;;;;;-140.81;100.00;62400.31;5025515;28;20053;-57
2024/03/05 05:24:03;;;;;;;14.85;5.90;;;;;;;-140.81;100.00;62400.31;5026965;28;20038;-60
2024/03/05 05:26:29;;;;;;;15.02;6.35;;;;;;;-140.81;100.00;62400.31;5009330;28;20049;-55
2024/03/05 05:28:56;;;;;;;18.60;7.22;;;;;;;-140.81;100.00;62400.31;5027149;28;20228;-54
2024/03/05 05:31:29;;;;;;;14.52;6.25;;;;;;;-140.81;100.00;62400.31;5026484;28;20041;-56
2024/03/05 05:33:55;;;;;;;13.60;6.32;;;;;;;-140.81;100.00;62400.31;5025696;28;20782;-58
2024/03/05 05:36:22;;;;;;;13.88;5.88;;;;;;;-140.81;100.00;62400.31;5025295;28;20095;-54
2024/03/05 05:38:51;;;;;;;14.50;6.05;;;;;;;-140.81;100.00;62400.31;5007537;28;20041;-54
2024/03/05 05:41:18;;;;;;;17.30;5.47;;;;;;;-140.81;100.00;62400.31;5027309;28;20051;-57
2024/03/05 05:43:44;;;;;;;14.18;6.22;;;;;;;-140.81;100.00;62400.31;5027148;28;20041;-55
2024/03/05 05:46:21;;;;;;;15.02;6.93;;;;;;;-140.81;100.00;62400.31;5025848;28;20102;-56
2024/03/05 05:48:49;;;;;;;16.73;6.90;;;;;;;-140.81;100.00;62400.31;5027140;28;20144;-55
2024/03/05 05:51:15;;;;;;;14.43;6.22;;;;;;;-140.81;100.00;62400.31;5025539;28;20790;-56
2024/03/05 05:53:42;;;;;;;10.18;5.60;;;;;;;-140.81;100.00;62400.31;5025598;28;20420;-61
2024/03/05 05:56:10;;;;;;;13.65;6.10;;;;;;;-140.81;100.00;62400.31;5024862;28;20040;-57
2024/03/05 05:58:36;;;;;;;15.25;6.78;;;;;;;-140.81;100.00;62400.31;5053596;28;20130;-56
2024/03/05 06:01:05;;;;;;;14.15;5.78;;;;;;;-140.81;100.00;62400.31;5016922;28;20163;-54
2024/03/05 06:03:33;;;;;;;16.27;6.10;;;;;;;-140.81;100.00;62400.31;5026540;28;20091;-56
2024/03/05 06:06:00;;;;;;;14.00;6.07;;;;;;;-140.81;100.00;62400.31;5026173;28;20037;-57
2024/03/05 06:08:27;;;;;;;12.48;6.05;;;;;;;-140.81;100.00;62400.31;5025047;28;20045;-55
2024/03/05 06:10:53;;;;;;;11.82;6.15;;;;;;;-140.81;100.00;62400.31;5025818;28;20041;-56
2024/03/05 06:13:20;;;;;;;13.65;6.05;;;;;;;-140.81;100.00;62400.31;5026423;28;20052;-56
2024/03/05 06:15:48;;;;;;;12.07;5.90;;;;;;;-140.81;100.00;62400.31;5026176;28;20053;-55
2024/03/05 06:18:15;;;;;;;12.35;5.53;;;;;;;-140.81;100.00;62400.31;5005001;28;20080;-55
2024/03/05 06:20:43;;;;;;;12.85;5.50;;;;;;;-140.81;100.00;62400.31;5014112;28;20037;-58
2024/03/05 06:23:11;;;;;;;10.13;5.03;;;;;;;-140.81;100.00;62400.31;5025985;28;20041;-52
2024/03/05 06:25:39;;;;;;;19.37;7.37;;;;;;;-140.81;100.00;62400.31;5026447;28;20049;-52
2024/03/05 06:28:09;;;;;;;11.82;5.30;;;;;;;-140.81;100.00;62400.31;5026447;28;20037;-56
2024/03/05 06:30:35;;;;;;;12.80;6.25;;;;;;;-140.81;100.00;62400.31;5025400;28;20525;-56
2024/03/05 06:33:01;;;;;;;15.00;7.05;;;;;;;-140.81;100.00;62400.31;5024017;28;20087;-57
2024/03/05 06:35:29;;;;;;;14.20;6.38;;;;;;;-140.81;100.00;62400.31;5026222;28;20136;-55
2024/03/05 06:37:57;;;;;;;13.82;5.95;;;;;;;-140.81;100.00;62400.31;5026303;28;20540;-59
2024/03/05 06:40:25;;;;;;;19.52;7.13;;;;;;;-140.81;100.00;62400.31;5025381;28;20041;-52
2024/03/05 06:42:52;;;;;;;15.82;5.90;;;;;;;-140.81;100.00;62400.31;5025906;28;20134;-58
2024/03/05 06:45:26;;;;;;;14.63;6.90;;;;;;;-140.81;100.00;62400.31;5024679;28;20072;-57
2024/03/05 06:47:56;;;;;;;12.75;6.00;;;;;;;-140.81;100.00;62400.31;5026246;28;20052;-59
2024/03/05 06:50:41;;;;;;;21.17;6.88;;;;;;;-140.81;100.00;62400.31;5026027;28;20539;-56
2024/03/05 06:58:41;;;;;;;11.30;5.43;;;;;;;-140.81;100.00;62400.31;5048901;28;20042;-51
2024/03/05 07:01:08;;;;;;;15.77;6.15;;;;;;;-140.81;100.00;62400.31;5010803;28;20056;-54
2024/03/05 07:03:38;;;;;;;14.05;6.32;;;;;;;-140.81;100.00;62400.31;5041217;28;20037;-56
2024/03/05 07:06:09;;;;;;;15.20;6.93;;;;;;;-140.81;100.00;62400.31;5057916;28;20128;-57
2024/03/05 07:08:39;;;;;;;17.50;6.78;;;;;;;-140.81;100.00;62400.31;5024201;28;20045;-52
2024/03/05 07:11:09;;;;;;;20.55;7.75;;;;;;;-140.81;100.00;62400.31;5024004;28;20041;-53
2024/03/05 07:13:36;;;;;;;17.30;8.10;;;;;;;-140.81;100.00;62400.31;5057099;28;20076;-58
2024/03/05 07:16:07;;;;;;;12.20;5.50;;;;;;;-140.81;100.00;62400.31;5026002;28;20079;-56
2024/03/05 07:18:36;;;;;;;12.05;5.72;;;;;;;-140.81;100.00;62400.31;5007601;28;20045;-57
2024/03/05 07:21:04;;;;;;;10.63;5.40;;;;;;;-140.81;100.00;62400.31;5024636;28;20111;-52
2024/03/05 07:23:30;;;;;;;16.33;6.78;;;;;;;-140.81;100.00;62400.31;5040096;28;20307;-50
2024/03/05 07:25:56;;;;;;;15.07;6.95;;;;;;;-140.81;100.00;62400.31;5025364;28;20469;-52
2024/03/05 07:28:24;;;;;;;13.82;6.80;;;;;;;-140.81;100.00;62400.31;5039562;28;20117;-53
2024/03/05 07:30:49;;;;;;;14.63;6.25;;;;;;;-140.81;100.00;62400.31;5025254;28;20037;-54
2024/03/05 07:33:17;;;;;;;13.38;7.05;;;;;;;-140.81;100.00;62400.31;5024717;28;20519;-53
2024/03/05 07:35:43;;;;;;;13.07;5.47;;;;;;;-140.81;100.00;62400.31;5023724;28;20160;-56
2024/03/05 07:38:09;;;;;;;13.73;6.38;;;;;;;-140.81;100.00;62400.31;5025263;28;20603;-55
2024/03/05 07:40:35;;;;;;;12.43;6.20;;;;;;;-140.81;100.00;62400.31;5025007;28;20052;-59
2024/03/05 07:43:04;;;;;;;13.73;6.50;;;;;;;-140.81;100.00;62400.31;5057343;28;20053;-61
2024/03/05 07:45:33;;;;;;;22.37;8.70;;;;;;;-140.81;100.00;62400.31;5029208;28;20545;-52
2024/03/05 07:47:59;;;;;;;13.15;6.70;;;;;;;-140.81;100.00;62400.31;5028181;28;20068;-53
2024/03/05 07:50:25;;;;;;;20.45;7.28;;;;;;;-140.81;100.00;62400.31;5029159;28;20489;-59
2024/03/05 07:52:53;;;;;;;19.67;8.43;;;;;;;-140.81;100.00;62400.31;5043975;28;20402;-54
2024/03/05 07:55:23;;;;;;;14.57;7.50;;;;;;;-140.81;100.00;62400.31;5029624;28;20049;-53
2024/03/05 07:57:52;;;;;;;;;;;;;;;-140.81;100.00;62400.31;5029691;28;20513;-57
2024/03/05 08:00:20;;;;;;;12.00;6.07;;;;;;;-140.81;100.00;62400.31;5010738;28;19917;-56
2024/03/05 08:02:47;;;;;;;11.65;5.22;;;;;;;-140.81;100.00;62400.31;5027459;28;20068;-54
2024/03/05 08:05:21;;;;;;;16.98;6.78;;;;;;;-140.81;100.00;62400.31;4995835;28;20095;-55
2024/03/05 08:07:52;;;;;;;19.15;6.82;;;;;;;-140.81;100.00;62400.31;5028091;28;20796;-56
2024/03/05 08:10:18;;;;;;;14.18;6.97;;;;;;;-140.81;100.00;62400.31;5028768;28;20048;-53
2024/03/05 08:12:47;;;;;;;13.35;5.93;;;;;;;-140.81;100.00;62400.31;5027109;28;20057;-55
2024/03/05 08:15:15;;;;;;;12.73;6.30;;;;;;;-140.81;100.00;62400.31;5029229;28;20041;-53
2024/03/05 08:17:49;;;;;;;16.33;6.53;;;;;;;-140.81;100.00;62400.31;5027462;28;20037;-52
2024/03/05 08:20:17;;;;;;;11.93;6.70;;;;;;;-140.81;100.00;62400.31;5027078;28;20124;-55
2024/03/05 08:22:45;;;;;;;9.88;4.78;;;;;;;-140.81;100.00;62400.31;5025954;28;20045;-57
2024/03/05 08:25:17;;;;;;;10.85;5.32;;;;;;;-140.81;100.00;62400.31;5027937;28;20048;-54
2024/03/05 08:27:59;;;;;;;14.52;6.03;;;;;;;-140.81;100.00;62400.31;5026984;28;20095;-57
2024/03/05 08:30:32;;;;;;;13.25;5.85;;;;;;;-140.81;100.00;62400.31;5026734;28;20059;-56
2024/03/05 08:33:03;;;;;;;17.42;8.25;;;;;;;-140.81;100.00;62400.31;5009827;28;20041;-57
2024/03/05 08:35:30;;;;;;;10.20;4.97;;;;;;;-140.81;100.00;62400.31;5026902;28;20045;-56
2024/03/05 08:37:59;;;;;;;7.65;3.90;;;;;;;-140.81;100.00;62400.31;5043089;28;20065;-55
2024/03/05 08:40:25;;;;;;;6.93;4.13;;;;;;;-140.81;100.00;62400.31;5010641;28;20037;-54
2024/03/05 08:42:55;;;;;;;11.85;5.93;;;;;;;-140.81;100.00;62400.31;5026624;28;20118;-57
2024/03/05 08:45:25;;;;;;;10.75;5.00;;;;;;;-140.81;100.00;62400.31;4996257;28;20044;-53
2024/03/05 08:47:52;;;;;;;11.50;4.88;;;;;;;-140.81;100.00;62400.31;5048078;28;20037;-53
2024/03/05 08:50:20;;;;;;;7.93;3.90;;;;;;;-140.81;100.00;62400.31;5046569;28;20064;-54
2024/03/05 08:52:46;;;;;;;8.90;4.22;;;;;;;-140.81;100.00;62400.31;5031518;28;20044;-53
2024/03/05 08:55:15;;;;;;;7.45;3.70;;;;;;;-140.81;100.00;62400.31;5042178;28;20180;-55
2024/03/05 08:57:42;;;;;;;9.13;4.13;;;;;;;-140.81;100.00;62400.31;5042817;28;20037;-57
2024/03/05 09:00:11;;;;;;;8.27;3.60;;;;;;;-140.81;100.00;62400.31;5020849;28;20143;-56
2024/03/05 09:02:37;;;;;;;6.45;3.33;;;;;;;-140.81;100.00;62400.31;5027595;28;20048;-58
2024/03/05 09:05:03;;;;;;;7.20;3.55;;;;;;;-140.81;100.00;62400.31;5027563;28;20505;-56
2024/03/05 09:07:31;;;;;;;6.28;3.58;;;;;;;-140.81;100.00;62400.31;5014829;28;20046;-57
2024/03/05 09:09:57;;;;;;;8.73;3.85;;;;;;;-140.81;100.00;62400.31;5023281;28;20509;-56
2024/03/05 09:12:24;;;;;;;6.05;3.35;;;;;;;-140.81;100.00;62400.31;5005627;28;20060;-58
2024/03/05 09:14:50;;;;;;;7.90;3.80;;;;;;;-140.81;100.00;62400.31;5027007;28;20425;-56
2024/03/05 09:17:16;;;;;;;8.77;4.20;;;;;;;-140.81;100.00;62400.31;5027083;28;20045;-58
2024/03/05 09:19:44;;;;;;;6.93;3.10;;;;;;;-140.81;100.00;62400.31;5009166;28;20037;-57
2024/03/05 09:22:10;;;;;;;7.17;3.37;;;;;;;-140.81;100.00;62400.31;5024801;28;20091;-58
2024/03/05 09:24:37;;;;;;;6.13;2.92;;;;;;;-140.81;100.00;62400.31;5025485;28;20065;-59
2024/03/05 09:27:03;;;;;;;7.60;2.95;;;;;;;-140.81;100.00;62400.31;5025234;28;20038;-61
2024/03/05 09:29:29;;;;;;;5.72;2.90;;;;;;;-140.81;100.00;62400.31;5026956;28;20045;-61
2024/03/05 09:31:56;;;;;;;5.45;3.15;;;;;;;-140.81;100.00;62400.31;5026939;28;20037;-60
2024/03/05 09:34:23;;;;;;;5.72;2.80;;;;;;;-140.81;100.00;62400.31;5035032;28;20054;-60
2024/03/05 09:36:49;;;;;;;4.82;2.80;;;;;;;-140.81;100.00;62400.31;5017539;28;20410;-60
2024/03/05 09:39:18;;;;;;;6.75;3.00;;;;;;;-140.81;100.00;62400.31;5025897;28;20158;-56
2024/03/05 09:41:44;;;;;;;6.30;2.97;;;;;;;-140.81;100.00;62400.31;5025179;28;20127;-59
2024/03/05 09:44:11;;;;;;;6.22;2.90;;;;;;;-140.81;100.00;62400.31;5024680;28;20037;-59
2024/03/05 09:46:51;;;;;;;8.02;3.33;;;;;;;-140.81;100.00;62400.31;5023808;28;20052;-56
2024/03/05 09:49:18;;;;;;;;;;;;;;;-140.81;100.00;62400.31;5026040;28;20051;-59
2024/03/05 09:51:46;;;;;;;7.47;2.88;;;;;;;-140.81;100.00;62400.31;5026507;28;19917;-60
2024/03/05 09:54:12;;;;;;;7.22;2.70;;;;;;;-140.81;100.00;62400.31;5032032;28;20148;-59
2024/03/05 09:56:45;;;;;;;5.97;3.05;;;;;;;-140.81;100.00;62400.31;5024937;28;20040;-61
2024/03/05 09:59:13;;;;;;;7.40;3.88;;;;;;;-140.81;100.00;62400.31;5041445;28;20049;-62
2024/03/05 10:01:41;;;;;;;8.15;3.92;;;;;;;-140.81;100.00;62400.31;5026221;28;20106;-59
2024/03/05 10:04:11;;;;;;;7.90;3.15;;;;;;;-140.81;100.00;62400.31;5007952;28;20081;-58
2024/03/05 10:06:37;;;;;;;8.15;3.42;;;;;;;-140.81;100.00;62400.31;5024590;28;20368;-60
2024/03/05 10:09:04;;;;;;;5.97;3.28;;;;;;;-140.81;100.00;62400.31;5000873;28;20520;-57
2024/03/05 10:11:31;;;;;;;5.07;3.25;;;;;;;-140.81;100.00;62400.31;5023097;28;20052;-58
2024/03/05 10:14:04;;;;;;;7.25;3.92;;;;;;;-140.81;100.00;62400.31;5023894;28;20037;-59
2024/03/05 10:16:30;;;;;;;8.73;3.20;;;;;;;-140.81;100.00;62400.31;5023601;28;20037;-56
2024/03/05 10:18:56;;;;;;;4.93;2.38;;;;;;;-140.81;100.00;62400.31;5025692;28;20409;-59
2024/03/05 10:21:24;;;;;;;5.80;2.90;;;;;;;-140.81;100.00;62400.31;5030573;28;20495;-59
2024/03/05 10:24:00;;;;;;;6.35;2.53;;;;;;;-140.81;100.00;62400.31;4997742;28;20037;-58
2024/03/05 10:26:30;;;;;;;5.25;2.33;;;;;;;-140.81;100.00;62400.31;5005358;28;20049;-58
2024/03/05 10:29:00;;;;;;;4.30;2.47;;;;;;;-140.81;100.00;62400.31;5021993;28;20052;-58
2024/03/05 10:31:33;;;;;;;7.40;2.38;;;;;;;-140.81;100.00;62400.31;5038070;28;20038;-59
2024/03/05 10:33:59;;;;;;;6.70;2.72;;;;;;;-140.81;100.00;62400.31;5004288;28;20088;-59
2024/03/05 10:36:26;;;;;;;5.40;2.55;;;;;;;-140.81;100.00;62400.31;5023240;28;20548;-58
2024/03/05 10:38:55;;;;;;;6.13;1.90;;;;;;;-140.81;100.00;62400.31;5008719;28;20071;-60
2024/03/05 10:41:29;;;;;;;5.60;2.75;;;;;;;-140.81;100.00;62400.31;5026567;28;20044;-56
2024/03/05 10:43:56;;;;;;;7.50;3.30;;;;;;;-140.81;100.00;62400.31;5025604;28;20045;-57
2024/03/05 10:46:23;;;;;;;5.32;1.90;;;;;;;-140.81;100.00;62400.31;5025655;28;20525;-58
2024/03/05 10:48:50;;;;;;;4.38;1.92;;;;;;;-140.81;100.00;62400.31;4991359;28;20831;-59
2024/03/05 10:51:20;;;;;;;2.05;1.10;;;;;;;-140.81;100.00;62400.31;5007196;28;20456;-58
2024/03/05 10:53:50;;;;;;;2.97;1.45;;;;;;;-140.81;100.00;62400.31;5036797;28;20142;-59
2024/03/05 10:56:19;;;;;;;1.60;1.20;;;;;;;-140.81;100.00;62400.31;5023069;28;20051;-56
2024/03/05 11:01:37;;;;;;;2.58;1.30;;;;;;;-140.81;100.00;62400.31;5020762;28;20499;-58
2024/03/05 11:04:12;;;;;;;2.85;1.23;;;;;;;-140.81;100.00;62400.31;5016673;28;20531;-57
2024/03/05 11:06:41;;;;;;;2.53;1.35;;;;;;;-140.81;100.00;62400.31;5021699;28;20515;-59
2024/03/05 11:09:10;;;;;;;1.95;0.73;;;;;;;-140.81;100.00;62400.31;4997347;28;20140;-57
2024/03/05 11:11:43;;;;;;;1.20;0.82;;;;;;;-140.81;100.00;62400.31;5025840;28;20049;-60
2024/03/05 11:14:10;;;;;;;0.95;0.73;;;;;;;-140.81;100.00;62400.31;5021354;28;20516;-60